Time;durP1;ratioP1;P1;durP2;ratioP2;P2;SDS_P1;SDS_P2;PMS_P1;PMS_P2;Temp;Humidity;BMP_temperature;BMP_pressure;BME280_temperature;BME280_humidity;BME280_pressure;Samples;Min_cycle;Max_cycle;Signal;HPM_P1;HPM_P2
2022/08/25 00:01:11;;;;;;;46.20;41.58;;;19.30;99.90;;;;;;5042956;28;20049;-79
2022/08/25 00:03:37;;;;;;;46.05;41.35;;;19.40;99.90;;;;;;5046936;28;20044;-81
2022/08/25 00:06:05;;;;;;;45.70;41.15;;;19.40;99.90;;;;;;5046190;28;20052;-80
2022/08/25 00:08:33;;;;;;;45.05;40.30;;;19.50;99.90;;;;;;5048220;28;20044;-81
2022/08/25 00:11:00;;;;;;;47.83;43.05;;;19.40;99.90;;;;;;5046373;28;20041;-81
2022/08/25 00:13:27;;;;;;;43.50;39.40;;;19.30;99.90;;;;;;5028165;28;20037;-81
2022/08/25 00:15:53;;;;;;;45.67;41.05;;;19.40;99.90;;;;;;5046055;28;20044;-80
2022/08/25 00:18:19;;;;;;;44.13;38.58;;;19.30;99.90;;;;;;5044716;28;20033;-80
2022/08/25 00:20:46;;;;;;;43.83;39.72;;;19.40;99.90;;;;;;5047415;28;20041;-80
2022/08/25 00:23:12;;;;;;;42.45;37.88;;;19.40;99.90;;;;;;5045923;28;20029;-80
2022/08/25 00:25:37;;;;;;;41.25;36.95;;;19.40;99.90;;;;;;5045936;28;20063;-81
2022/08/25 00:28:03;;;;;;;40.42;36.35;;;19.40;99.90;;;;;;5045151;28;20037;-81
2022/08/25 00:30:29;;;;;;;38.45;34.15;;;19.40;99.90;;;;;;5014886;28;20084;-81
2022/08/25 00:32:55;;;;;;;39.70;35.70;;;19.50;99.90;;;;;;5012856;28;20511;-80
2022/08/25 00:35:22;;;;;;;38.00;34.20;;;19.50;99.90;;;;;;5030506;28;20373;-81
2022/08/25 00:37:47;;;;;;;36.47;32.42;;;19.50;99.90;;;;;;5044725;28;20460;-81
2022/08/25 00:40:13;;;;;;;33.90;30.50;;;19.50;99.90;;;;;;5043905;28;20059;-79
2022/08/25 00:42:39;;;;;;;33.72;30.25;;;19.50;99.90;;;;;;5043997;28;20041;-80
2022/08/25 00:45:07;;;;;;;33.15;29.70;;;19.50;99.90;;;;;;5046517;28;20060;-80
2022/08/25 00:47:32;;;;;;;32.97;29.63;;;19.50;99.90;;;;;;5046781;28;20048;-81
2022/08/25 00:50:01;;;;;;;32.38;29.08;;;19.40;99.90;;;;;;5042746;28;21956;-80
2022/08/25 00:52:49;;;;;;;28.42;25.67;;;19.50;99.90;;;;;;5044514;28;20567;-80
2022/08/25 00:55:28;;;;;;;27.63;25.17;;;19.40;99.90;;;;;;5045261;28;20041;-81
2022/08/25 00:58:06;;;;;;;25.80;22.67;;;19.40;99.90;;;;;;5039308;28;20289;-81
2022/08/25 01:00:38;;;;;;;25.08;22.67;;;19.40;99.90;;;;;;5041253;28;20076;-80
2022/08/25 01:03:04;;;;;;;25.10;21.38;;;19.40;99.90;;;;;;5042339;28;20048;-80
2022/08/25 01:05:30;;;;;;;22.52;20.23;;;19.50;99.90;;;;;;5041222;28;20446;-79
2022/08/25 01:07:58;;;;;;;19.73;17.65;;;19.50;99.90;;;;;;5045357;28;20033;-80
2022/08/25 01:10:25;;;;;;;19.90;18.08;;;19.50;99.90;;;;;;5046737;28;20080;-79
2022/08/25 01:12:56;;;;;;;24.58;17.63;;;19.50;99.90;;;;;;5044954;28;20090;-79
2022/08/25 01:15:22;;;;;;;17.25;15.15;;;19.50;99.90;;;;;;5026346;28;20060;-81
2022/08/25 01:17:51;;;;;;;18.50;16.45;;;19.60;99.90;;;;;;5045818;28;20049;-79
2022/08/25 01:20:20;;;;;;;16.08;14.65;;;19.60;99.90;;;;;;5044810;28;20140;-79
2022/08/25 01:22:46;;;;;;;16.05;14.40;;;19.60;99.90;;;;;;5028481;28;20090;-78
2022/08/25 01:25:33;;;;;;;18.23;14.45;;;19.50;99.90;;;;;;5046383;28;20212;-79
2022/08/25 01:27:59;;;;;;;17.40;15.63;;;19.50;99.90;;;;;;5042114;28;20049;-79
2022/08/25 01:30:25;;;;;;;15.65;13.57;;;19.50;99.90;;;;;;5044965;28;20048;-79
2022/08/25 01:32:50;;;;;;;12.95;11.38;;;19.50;99.90;;;;;;5043603;28;20494;-79
2022/08/25 01:35:17;;;;;;;15.93;12.50;;;19.50;99.90;;;;;;5042298;28;20041;-82
2022/08/25 01:37:43;;;;;;;12.50;11.10;;;19.60;99.90;;;;;;5026467;28;20041;-78
2022/08/25 01:40:10;;;;;;;11.43;10.43;;;19.50;99.90;;;;;;5044503;28;20041;-79
2022/08/25 01:42:51;;;;;;;15.38;11.13;;;19.50;99.90;;;;;;5043725;28;20453;-78
2022/08/25 01:45:17;;;;;;;12.27;11.07;;;19.50;99.90;;;;;;5041391;28;20103;-79
2022/08/25 01:47:43;;;;;;;10.52;8.07;;;19.50;99.90;;;;;;5044153;28;20037;-80
2022/08/25 01:50:09;;;;;;;12.23;9.55;;;19.50;99.90;;;;;;5044907;28;20056;-82
2022/08/25 01:55:04;;;;;;;9.23;7.85;;;19.50;99.90;;;;;;5066526;23;20068;-81
2022/08/25 01:57:30;;;;;;;8.55;7.68;;;19.50;99.90;;;;;;5061245;28;20135;-80
2022/08/25 01:59:57;;;;;;;8.18;7.38;;;19.60;99.90;;;;;;5061843;28;20040;-78
2022/08/25 02:02:23;;;;;;;12.98;8.02;;;19.60;99.90;;;;;;5063939;28;20048;-79
2022/08/25 02:04:48;;;;;;;7.90;6.88;;;19.60;99.90;;;;;;5065958;28;20041;-80
2022/08/25 02:07:14;;;;;;;12.55;7.25;;;19.60;99.90;;;;;;5064740;28;20049;-79
2022/08/25 02:09:40;;;;;;;6.53;5.30;;;19.60;99.90;;;;;;5054231;28;20048;-80
2022/08/25 02:12:08;;;;;;;12.13;6.07;;;19.60;99.90;;;;;;5048515;28;20086;-81
2022/08/25 02:14:35;;;;;;;7.82;6.25;;;19.60;99.90;;;;;;5064074;28;20085;-79
2022/08/25 02:17:02;;;;;;;8.50;4.72;;;19.70;99.90;;;;;;5064100;28;20101;-80
2022/08/25 02:19:29;;;;;;;12.18;5.07;;;19.60;99.90;;;;;;5062599;28;20040;-80
2022/08/25 02:21:55;;;;;;;7.47;4.53;;;19.70;99.90;;;;;;5052230;28;20174;-80
2022/08/25 02:24:21;;;;;;;9.77;4.85;;;19.70;99.90;;;;;;5064854;28;20546;-80
2022/08/25 02:26:47;;;;;;;6.65;4.70;;;19.60;99.90;;;;;;5045042;28;20060;-79
2022/08/25 02:29:13;;;;;;;7.80;4.80;;;19.60;99.90;;;;;;5061996;28;20032;-79
2022/08/25 02:31:39;;;;;;;8.25;4.03;;;19.60;99.90;;;;;;5062917;28;20471;-80
2022/08/25 02:34:06;;;;;;;6.75;4.35;;;19.70;99.90;;;;;;5064381;28;20040;-80
2022/08/25 02:36:32;;;;;;;6.28;3.50;;;19.60;99.90;;;;;;5065169;28;20041;-79
2022/08/25 02:38:58;;;;;;;5.88;3.22;;;19.70;99.90;;;;;;5024649;28;20617;-79
2022/08/25 02:41:25;;;;;;;5.32;3.63;;;19.80;99.90;;;;;;5064485;28;20085;-79
2022/08/25 02:43:51;;;;;;;8.50;4.28;;;19.80;99.90;;;;;;5061716;28;20059;-80
2022/08/25 02:46:19;;;;;;;6.18;4.32;;;19.80;99.90;;;;;;5063463;28;20037;-79
2022/08/25 02:48:45;;;;;;;5.47;4.10;;;19.80;99.90;;;;;;5053618;28;20051;-79
2022/08/25 02:51:11;;;;;;;8.23;4.05;;;19.70;99.90;;;;;;5064065;28;20044;-79
2022/08/25 02:53:39;;;;;;;3.83;3.40;;;19.60;99.90;;;;;;5063402;28;20546;-78
2022/08/25 02:56:07;;;;;;;7.18;3.95;;;19.70;99.90;;;;;;5063785;28;20045;-77
2022/08/25 02:58:33;;;;;;;11.38;4.80;;;19.60;99.90;;;;;;5044687;28;20052;-80
2022/08/25 03:00:59;;;;;;;12.40;4.90;;;19.60;99.90;;;;;;5058153;28;20063;-78
2022/08/25 03:03:25;;;;;;;6.00;3.03;;;19.60;99.90;;;;;;5059503;28;20381;-78
2022/08/25 03:05:50;;;;;;;7.28;3.28;;;19.60;99.90;;;;;;5063482;28;20467;-79
2022/08/25 03:08:16;;;;;;;4.50;2.83;;;19.70;99.90;;;;;;5063925;28;20045;-79
2022/08/25 03:10:42;;;;;;;16.88;4.38;;;19.70;99.90;;;;;;5064846;28;20051;-78
2022/08/25 03:13:07;;;;;;;8.73;3.33;;;19.60;99.90;;;;;;5030040;28;20032;-79
2022/08/25 03:15:36;;;;;;;7.28;2.70;;;19.60;99.90;;;;;;5059740;28;20036;-80
2022/08/25 03:18:04;;;;;;;7.85;2.63;;;19.60;99.90;;;;;;5061874;28;20037;-79
2022/08/25 03:20:30;;;;;;;15.32;5.93;;;19.60;99.90;;;;;;5063171;28;20071;-81
2022/08/25 03:22:56;;;;;;;6.57;3.22;;;19.60;99.90;;;;;;5061076;28;20052;-81
2022/08/25 03:28:07;;;;;;;5.07;3.15;;;19.60;99.90;;;;;;5066394;28;20045;-78
2022/08/25 03:30:33;;;;;;;4.25;2.72;;;19.50;99.90;;;;;;5034785;28;20131;-79
2022/08/25 03:32:58;;;;;;;3.47;2.50;;;19.50;99.90;;;;;;5069366;28;20040;-79
2022/08/25 03:35:24;;;;;;;6.75;2.92;;;19.50;99.90;;;;;;5068025;28;20395;-80
2022/08/25 03:37:53;;;;;;;7.72;2.58;;;19.50;99.90;;;;;;5069207;28;20123;-80
2022/08/25 03:40:21;;;;;;;8.60;2.67;;;19.50;99.90;;;;;;5048849;28;20072;-83
2022/08/25 03:42:47;;;;;;;7.97;3.10;;;19.50;99.90;;;;;;5050232;28;20048;-79
2022/08/25 03:45:15;;;;;;;11.32;4.88;;;19.40;99.90;;;;;;5048640;28;20413;-79
2022/08/25 03:47:41;;;;;;;13.23;3.03;;;19.40;99.90;;;;;;5048304;28;20041;-80
2022/08/25 03:50:09;;;;;;;4.25;3.30;;;19.40;99.90;;;;;;5065167;28;20102;-81
2022/08/25 03:52:36;;;;;;;5.07;3.22;;;19.40;99.90;;;;;;5066968;28;20041;-80
2022/08/25 03:55:04;;;;;;;9.45;3.47;;;19.30;99.90;;;;;;5064836;28;20062;-80
2022/08/25 03:57:30;;;;;;;7.90;2.97;;;19.30;99.90;;;;;;5063388;28;20113;-80
2022/08/25 03:59:56;;;;;;;6.18;3.03;;;19.40;99.90;;;;;;5059595;28;20131;-82
2022/08/25 04:02:22;;;;;;;6.95;2.60;;;19.30;99.90;;;;;;5059494;28;20567;-79
2022/08/25 04:04:48;;;;;;;4.70;2.83;;;19.30;99.90;;;;;;5067453;28;20836;-78
2022/08/25 04:07:13;;;;;;;6.13;3.33;;;19.30;99.90;;;;;;5067687;28;20048;-80
2022/08/25 04:09:39;;;;;;;7.47;3.10;;;19.30;99.90;;;;;;5065171;28;20041;-81
2022/08/25 04:12:05;;;;;;;4.00;2.65;;;19.30;99.90;;;;;;5067159;28;20052;-78
2022/08/25 04:14:31;;;;;;;5.15;2.58;;;19.20;99.90;;;;;;5065921;28;20063;-80
2022/08/25 04:16:57;;;;;;;4.43;3.15;;;19.10;99.90;;;;;;5066777;28;20059;-79
2022/08/25 04:19:22;;;;;;;7.28;3.60;;;19.10;99.90;;;;;;5064558;28;20041;-78
2022/08/25 04:21:48;;;;;;;7.00;3.45;;;19.10;99.90;;;;;;5065743;28;20123;-80
2022/08/25 04:24:14;;;;;;;5.53;2.90;;;19.10;99.90;;;;;;5063093;28;20585;-81
2022/08/25 04:26:46;;;;;;;3.38;2.95;;;19.00;99.90;;;;;;5065361;28;20114;-80
2022/08/25 04:29:15;;;;;;;4.60;3.40;;;19.00;99.90;;;;;;5059480;28;20048;-78
2022/08/25 04:31:45;;;;;;;5.35;3.15;;;19.00;99.90;;;;;;5067522;28;20082;-83
2022/08/25 04:34:12;;;;;;;7.18;3.58;;;18.90;99.90;;;;;;5063391;28;20045;-81
2022/08/25 04:36:38;;;;;;;8.05;3.38;;;18.90;99.90;;;;;;5046938;28;20128;-79
2022/08/25 04:39:04;;;;;;;6.32;2.83;;;18.90;99.90;;;;;;5066354;28;20128;-79
2022/08/25 04:41:30;;;;;;;12.43;3.25;;;18.90;99.90;;;;;;5055374;28;20032;-81
2022/08/25 04:43:57;;;;;;;6.28;3.08;;;18.90;99.90;;;;;;5061992;28;20051;-81
2022/08/25 04:46:26;;;;;;;5.80;3.78;;;18.90;99.90;;;;;;5060201;28;20422;-79
2022/08/25 04:48:54;;;;;;;8.52;3.20;;;18.90;99.90;;;;;;5061852;28;20053;-80
2022/08/25 04:51:26;;;;;;;9.05;3.50;;;18.90;99.90;;;;;;5059937;28;20036;-80
2022/08/25 04:53:53;;;;;;;11.38;3.53;;;18.90;99.90;;;;;;5065011;28;20067;-80
2022/08/25 04:56:23;;;;;;;7.88;2.95;;;18.90;99.90;;;;;;5047506;28;20048;-81
2022/08/25 04:58:50;;;;;;;9.93;3.60;;;18.90;99.90;;;;;;5066768;28;20089;-80
2022/08/25 05:01:18;;;;;;;4.63;2.92;;;18.90;99.90;;;;;;5066654;28;20090;-81
2022/08/25 05:03:46;;;;;;;6.78;3.78;;;18.90;99.90;;;;;;5068437;28;20050;-81
2022/08/25 05:06:13;;;;;;;11.40;3.53;;;18.90;99.90;;;;;;5051859;28;20041;-80
2022/08/25 05:08:39;;;;;;;9.68;3.00;;;18.90;99.90;;;;;;5047601;28;20072;-78
2022/08/25 05:11:07;;;;;;;8.75;3.58;;;18.90;99.90;;;;;;5063952;28;20128;-79
2022/08/25 05:13:33;;;;;;;3.80;3.03;;;18.90;99.90;;;;;;5045721;28;20082;-78
2022/08/25 05:15:59;;;;;;;11.23;3.17;;;18.90;99.90;;;;;;5064869;28;20044;-78
2022/08/25 05:18:28;;;;;;;6.60;3.17;;;18.90;99.90;;;;;;5047598;28;20058;-78
2022/08/25 05:20:54;;;;;;;12.60;3.75;;;19.00;99.90;;;;;;5066641;28;20733;-76
2022/08/25 05:23:21;;;;;;;8.95;4.97;;;19.00;99.90;;;;;;5063228;28;20048;-78
2022/08/25 05:25:49;;;;;;;4.55;2.95;;;19.00;99.90;;;;;;5066453;28;20060;-77
2022/08/25 05:28:15;;;;;;;6.78;3.58;;;19.00;99.90;;;;;;5060086;28;20505;-79
2022/08/25 05:30:42;;;;;;;11.55;3.67;;;19.00;99.90;;;;;;5045381;28;20041;-78
2022/08/25 05:33:09;;;;;;;10.60;4.30;;;19.10;99.90;;;;;;5064900;28;20106;-78
2022/08/25 05:35:35;;;;;;;4.30;3.30;;;19.10;99.90;;;;;;5054298;28;20041;-75
2022/08/25 05:38:02;;;;;;;9.15;4.13;;;19.20;99.90;;;;;;5061242;28;20490;-78
2022/08/25 05:40:28;;;;;;;12.65;4.32;;;19.20;99.90;;;;;;5066556;28;20045;-78
2022/08/25 05:42:54;;;;;;;5.70;2.92;;;19.30;99.90;;;;;;5044803;28;20079;-79
2022/08/25 05:45:20;;;;;;;8.52;3.60;;;19.30;99.90;;;;;;5066645;28;20079;-79
2022/08/25 05:47:45;;;;;;;3.78;3.20;;;19.30;99.90;;;;;;5046053;28;20044;-79
2022/08/25 05:50:11;;;;;;;4.30;3.58;;;19.40;99.90;;;;;;5063065;28;20072;-79
2022/08/25 05:52:37;;;;;;;8.23;3.47;;;19.40;99.90;;;;;;5047524;28;20044;-79
2022/08/25 05:55:05;;;;;;;4.38;3.17;;;19.50;99.90;;;;;;5010438;28;20084;-77
2022/08/25 05:57:32;;;;;;;7.43;3.03;;;19.50;99.90;;;;;;5053621;28;20044;-77
2022/08/25 05:59:57;;;;;;;8.98;3.70;;;19.60;99.90;;;;;;5067027;28;20043;-77
2022/08/25 06:02:43;;;;;;;5.65;2.70;;;19.70;99.90;;;;;;5064051;28;20063;-77
2022/08/25 06:05:16;;;;;;;6.95;2.90;;;19.70;99.90;;;;;;5048654;28;20048;-77
2022/08/25 06:07:44;;;;;;;6.40;3.40;;;19.70;99.90;;;;;;5065674;28;20563;-77
2022/08/25 06:10:11;;;;;;;6.28;3.20;;;19.80;99.90;;;;;;5065987;28;20044;-77
2022/08/25 06:12:46;;;;;;;6.88;3.13;;;19.80;99.90;;;;;;5102786;27;20396;-77
2022/08/25 06:15:14;;;;;;;5.93;3.35;;;19.90;99.90;;;;;;5098576;28;20462;-77
2022/08/25 06:17:41;;;;;;;9.05;3.17;;;20.00;99.90;;;;;;5095269;28;20108;-77
2022/08/25 06:20:09;;;;;;;30.58;6.00;;;20.10;99.90;;;;;;5107319;27;20486;-77
2022/08/25 06:22:36;;;;;;;5.82;4.07;;;20.20;99.90;;;;;;5092684;28;20101;-75
2022/08/25 06:25:05;;;;;;;3.70;2.85;;;20.20;99.90;;;;;;5083731;28;20044;-77
2022/08/25 06:27:31;;;;;;;10.23;3.63;;;20.30;99.90;;;;;;5082480;28;20119;-76
2022/08/25 06:29:57;;;;;;;8.23;3.40;;;20.30;99.90;;;;;;5083229;28;20735;-77
2022/08/25 06:32:22;;;;;;;8.45;2.80;;;20.30;99.90;;;;;;5127778;27;20052;-80
2022/08/25 06:34:48;;;;;;;10.45;3.35;;;20.40;99.90;;;;;;5102547;28;20482;-76
2022/08/25 06:37:14;;;;;;;7.20;3.03;;;20.50;99.90;;;;;;5083322;28;20190;-76
2022/08/25 06:39:39;;;;;;;9.55;3.08;;;20.50;99.90;;;;;;5092871;28;20035;-76
2022/08/25 06:42:05;;;;;;;5.40;2.90;;;20.60;99.90;;;;;;5121002;27;20405;-75
2022/08/25 06:44:31;;;;;;;5.40;3.40;;;20.60;99.90;;;;;;5123458;28;20126;-78
2022/08/25 06:46:56;;;;;;;5.45;3.50;;;20.70;99.90;;;;;;5105815;28;20072;-80
2022/08/25 06:49:26;;;;;;;12.45;3.45;;;20.80;99.90;;;;;;5095245;28;20039;-79
2022/08/25 06:51:52;;;;;;;10.27;4.40;;;20.80;99.90;;;;;;5098048;28;20510;-78
2022/08/25 06:54:18;;;;;;;9.45;3.67;;;20.90;99.90;;;;;;5102729;28;20040;-79
2022/08/25 06:56:43;;;;;;;13.30;5.68;;;21.00;99.90;;;;;;5102340;28;20047;-79
2022/08/25 06:59:09;;;;;;;11.60;5.05;;;21.20;99.90;;;;;;5085661;28;20040;-79
2022/08/25 07:01:35;;;;;;;11.00;4.38;;;21.30;99.90;;;;;;5095377;27;20051;-70
2022/08/25 07:04:04;;;;;;;7.85;4.07;;;21.40;99.90;;;;;;5083026;28;20414;-77
2022/08/25 07:06:34;;;;;;;9.32;3.42;;;21.70;99.90;;;;;;5081880;28;20175;-76
2022/08/25 07:09:00;;;;;;;6.75;3.13;;;22.80;99.90;;;;;;5082789;28;20032;-76
2022/08/25 07:11:27;;;;;;;6.70;3.65;;;24.10;99.90;;;;;;5100403;28;20054;-76
2022/08/25 07:13:53;;;;;;;10.45;4.30;;;25.00;99.90;;;;;;5096462;28;20063;-76
2022/08/25 07:16:20;;;;;;;10.73;3.97;;;25.40;99.90;;;;;;5094115;28;20689;-74
2022/08/25 07:18:46;;;;;;;6.93;3.85;;;24.10;99.90;;;;;;5094264;28;20080;-77
2022/08/25 07:21:15;;;;;;;5.35;2.65;;;23.60;99.90;;;;;;5104404;28;20050;-80
2022/08/25 07:23:41;;;;;;;6.30;3.78;;;23.40;99.90;;;;;;5080912;28;20044;-73
2022/08/25 07:26:16;;;;;;;7.43;3.40;;;23.20;99.90;;;;;;5060751;28;20394;-74
2022/08/25 07:28:42;;;;;;;5.22;2.97;;;23.30;99.90;;;;;;5104367;28;20040;-75
2022/08/25 07:31:08;;;;;;;7.25;3.85;;;23.30;99.90;;;;;;5087525;28;20436;-75
2022/08/25 07:33:34;;;;;;;9.45;3.08;;;23.40;99.90;;;;;;5089137;28;20490;-74
2022/08/25 07:36:00;;;;;;;4.68;3.15;;;23.50;99.90;;;;;;5067702;28;20055;-76
2022/08/25 07:38:27;;;;;;;8.57;3.30;;;23.60;99.90;;;;;;5088414;28;20573;-76
2022/08/25 07:41:00;;;;;;;48.08;4.55;;;23.80;99.90;;;;;;5081205;28;20094;-77
2022/08/25 07:43:26;;;;;;;9.70;3.47;;;23.80;99.90;;;;;;5076448;28;20049;-75
2022/08/25 07:45:52;;;;;;;11.10;4.22;;;23.80;99.90;;;;;;5068751;28;20512;-76
2022/08/25 07:48:19;;;;;;;9.00;4.05;;;23.90;99.90;;;;;;5067140;28;20063;-77
2022/08/25 07:50:46;;;;;;;8.93;3.70;;;24.10;99.90;;;;;;5083092;28;20820;-75
2022/08/25 07:53:13;;;;;;;4.85;2.67;;;24.20;99.90;;;;;;5083826;28;20040;-75
2022/08/25 07:55:40;;;;;;;4.50;3.00;;;24.30;99.90;;;;;;5065304;28;20481;-76
2022/08/25 07:58:07;;;;;;;7.07;2.97;;;24.40;99.90;;;;;;5089900;28;20508;-75
2022/08/25 08:00:35;;;;;;;7.57;3.17;;;24.40;99.90;;;;;;5091067;28;20456;-75
2022/08/25 08:03:06;;;;;;;5.35;2.70;;;24.40;99.90;;;;;;5086011;28;20089;-75
2022/08/25 08:05:32;;;;;;;5.82;2.22;;;24.50;99.90;;;;;;5081547;28;20513;-75
2022/08/25 08:07:59;;;;;;;7.55;3.53;;;24.60;99.90;;;;;;5095336;28;22738;-74
2022/08/25 08:10:25;;;;;;;4.65;3.05;;;24.70;99.90;;;;;;5086574;28;20724;-74
2022/08/25 08:12:51;;;;;;;9.20;2.70;;;24.70;99.90;;;;;;5087905;28;20056;-73
2022/08/25 08:15:18;;;;;;;7.68;3.45;;;24.90;99.90;;;;;;5067084;28;20044;-74
2022/08/25 08:17:44;;;;;;;5.57;2.72;;;24.90;99.90;;;;;;5100217;27;20059;-74
2022/08/25 08:20:12;;;;;;;5.90;3.35;;;25.10;99.90;;;;;;5073532;28;20028;-74
2022/08/25 08:22:41;;;;;;;7.93;2.70;;;25.20;99.90;;;;;;5100356;27;20052;-74
2022/08/25 08:25:08;;;;;;;8.45;3.35;;;25.30;99.90;;;;;;5067524;28;20051;-74
2022/08/25 08:27:34;;;;;;;4.35;3.15;;;25.40;99.90;;;;;;5099178;28;20066;-71
2022/08/25 08:30:01;;;;;;;7.40;3.00;;;25.50;99.90;;;;;;5106341;28;20494;-75
2022/08/25 08:32:26;;;;;;;6.00;2.65;;;25.60;99.90;;;;;;5092953;28;20432;-75
2022/08/25 08:34:52;;;;;;;5.35;2.50;;;25.70;99.90;;;;;;5075657;28;20047;-78
2022/08/25 08:37:18;;;;;;;8.75;2.70;;;25.70;99.90;;;;;;5071851;28;20444;-80
2022/08/25 08:39:44;;;;;;;4.97;3.13;;;25.80;99.90;;;;;;5098671;28;20075;-80
2022/08/25 08:42:45;;;;;;;5.93;3.03;;;25.80;99.90;;;;;;5106847;28;20093;-75
2022/08/25 08:45:51;;;;;;;5.93;3.15;;;26.00;99.90;;;;;;5083967;28;20045;-74
2022/08/25 08:48:22;;;;;;;6.22;2.53;;;26.10;99.90;;;;;;5005069;28;20403;-73
2022/08/25 08:51:05;;;;;;;5.43;2.40;;;26.10;99.90;;;;;;5004096;28;20132;-77
2022/08/25 08:53:47;;;;;;;4.50;2.30;;;26.30;99.90;;;;;;5045052;28;20044;-74
2022/08/25 08:56:18;;;;;;;6.93;3.40;;;26.40;99.90;;;;;;5083522;28;20032;-76
2022/08/25 08:58:50;;;;;;;4.15;2.50;;;26.40;99.90;;;;;;5086181;28;20040;-76
2022/08/25 09:01:23;;;;;;;8.45;2.95;;;26.50;99.90;;;;;;5084228;28;20556;-76
2022/08/25 09:04:07;;;;;;;5.43;2.88;;;26.70;99.90;;;;;;5076497;28;20570;-76
2022/08/25 09:06:43;;;;;;;6.53;2.35;;;26.70;99.90;;;;;;5099078;28;20032;-77
2022/08/25 09:09:13;;;;;;;7.35;2.75;;;26.80;99.90;;;;;;5085640;28;20440;-76
2022/08/25 09:11:38;;;;;;;;;;;26.80;99.90;;;;;;5067021;28;20494;-75
2022/08/25 09:14:19;;;;;;;6.70;2.28;;;27.00;99.90;;;;;;5084885;28;19973;-76
2022/08/25 09:16:59;;;;;;;2.92;2.50;;;27.10;99.90;;;;;;5064343;28;20511;-76
2022/08/25 09:19:40;;;;;;;10.00;2.60;;;27.20;99.90;;;;;;5063279;28;20060;-76
2022/08/25 09:22:12;;;;;;;15.48;2.10;;;27.40;99.90;;;;;;5097700;28;20083;-76
2022/08/25 09:25:09;;;;;;;4.80;1.50;;;27.50;99.90;;;;;;5071939;28;20457;-77
2022/08/25 09:27:56;;;;;;;5.45;2.13;;;27.70;99.90;;;;;;5096786;28;20109;-76
2022/08/25 09:30:22;;;;;;;6.38;2.20;;;27.60;99.90;;;;;;5105663;28;20130;-76
2022/08/25 09:33:00;;;;;;;5.50;2.58;;;27.70;99.90;;;;;;5099609;28;20123;-76
2022/08/25 09:35:30;;;;;;;16.77;3.42;;;27.80;99.90;;;;;;5097900;28;20110;-76
2022/08/25 09:37:59;;;;;;;4.53;1.83;;;27.90;99.90;;;;;;5088550;28;20059;-77
2022/08/25 09:40:29;;;;;;;5.75;2.38;;;28.00;99.90;;;;;;5082769;28;20177;-77
2022/08/25 09:42:57;;;;;;;8.13;2.13;;;28.00;99.90;;;;;;5085332;28;20055;-77
2022/08/25 09:45:44;;;;;;;8.05;2.03;;;28.10;99.90;;;;;;5094901;28;20036;-76
2022/08/25 09:48:20;;;;;;;5.63;1.95;;;28.10;99.90;;;;;;5095483;28;20075;-77
2022/08/25 09:50:47;;;;;;;6.15;2.65;;;28.10;99.90;;;;;;5085128;28;20135;-78
2022/08/25 09:53:14;;;;;;;6.40;1.95;;;28.10;99.90;;;;;;5074623;28;20052;-77
2022/08/25 09:55:43;;;;;;;12.82;2.03;;;28.20;99.90;;;;;;5100216;28;20039;-76
2022/08/25 09:58:22;;;;;;;2.92;2.42;;;28.30;99.90;;;;;;5105175;28;20501;-77
2022/08/25 10:01:12;;;;;;;3.90;2.10;;;28.30;99.90;;;;;;5105705;28;20439;-77
2022/08/25 10:03:54;;;;;;;5.57;1.63;;;28.40;99.90;;;;;;5098290;28;20036;-76
2022/08/25 10:06:20;;;;;;;3.30;2.05;;;28.30;99.90;;;;;;5099038;28;20032;-76
2022/08/25 10:08:47;;;;;;;4.68;1.95;;;28.50;99.90;;;;;;5083333;28;20048;-76
2022/08/25 10:11:29;;;;;;;4.05;1.70;;;28.40;99.90;;;;;;5083695;28;20102;-75
2022/08/25 10:14:23;;;;;;;6.70;1.77;;;28.40;99.90;;;;;;5088458;28;20096;-76
2022/08/25 10:16:49;;;;;;;6.38;1.98;;;28.50;99.90;;;;;;5104397;28;20047;-75
2022/08/25 10:19:20;;;;;;;3.20;2.17;;;28.60;99.90;;;;;;5093578;28;20066;-77
2022/08/25 10:22:25;;;;;;;5.13;2.30;;;28.60;99.90;;;;;;5068807;28;20451;-76
2022/08/25 10:24:51;;;;;;;4.28;2.05;;;28.70;99.90;;;;;;5083887;28;20429;-78
2022/08/25 10:27:56;;;;;;;8.15;1.92;;;28.80;99.90;;;;;;5103306;28;20047;-77
2022/08/25 10:30:41;;;;;;;3.05;1.45;;;29.00;99.90;;;;;;5089084;28;20383;-77
2022/08/25 10:33:27;;;;;;;3.13;1.88;;;29.00;99.90;;;;;;5099761;28;20127;-76
2022/08/25 10:35:57;;;;;;;7.07;1.98;;;29.20;99.90;;;;;;5103834;28;20481;-77
2022/08/25 10:38:42;;;;;;;5.22;2.08;;;29.20;99.90;;;;;;5084757;28;20043;-76
2022/08/25 10:41:26;;;;;;;4.90;1.85;;;29.10;99.90;;;;;;5083281;28;20250;-77
2022/08/25 10:47:26;;;;;;;3.72;1.95;;;29.30;99.90;;;;;;5083098;28;20549;-77
2022/08/25 10:50:15;;;;;;;4.18;2.25;;;29.50;99.90;;;;;;5079942;28;20094;-76
2022/08/25 10:53:02;;;;;;;7.40;2.30;;;29.50;99.70;;;;;;5064437;28;20053;-75
2022/08/25 10:55:38;;;;;;;3.80;1.60;;;29.50;99.90;;;;;;5082214;28;20048;-76
2022/08/25 10:58:30;;;;;;;3.53;2.00;;;29.70;99.90;;;;;;5085896;28;20465;-77
2022/08/25 11:01:36;;;;;;;3.00;2.38;;;29.70;99.90;;;;;;5059345;28;20063;-77
2022/08/25 11:04:07;;;;;;;3.28;1.80;;;29.80;99.90;;;;;;5078170;28;20393;-76
2022/08/25 11:06:46;;;;;;;3.75;1.85;;;29.80;99.90;;;;;;5091849;28;20036;-77
2022/08/25 11:09:19;;;;;;;5.07;2.07;;;29.70;99.90;;;;;;5087890;28;20522;-77
2022/08/25 11:12:09;;;;;;;4.57;1.90;;;30.00;99.90;;;;;;5085387;28;20056;-76
2022/08/25 11:14:51;;;;;;;2.08;1.73;;;29.90;99.90;;;;;;5097040;28;20494;-76
2022/08/25 11:17:31;;;;;;;6.38;1.83;;;29.90;99.40;;;;;;5101302;28;20040;-76
2022/08/25 11:20:04;;;;;;;1.75;1.35;;;30.10;99.30;;;;;;5088031;28;20040;-77
2022/08/25 11:22:54;;;;;;;6.00;1.98;;;30.00;99.20;;;;;;5087511;28;20400;-76
2022/08/25 11:25:31;;;;;;;4.55;2.00;;;30.00;99.80;;;;;;5100131;28;20533;-75
2022/08/25 11:28:17;;;;;;;6.38;1.83;;;29.80;99.90;;;;;;5108309;28;20058;-76
2022/08/25 11:30:43;;;;;;;5.75;2.00;;;29.90;99.70;;;;;;5108255;28;20044;-76
2022/08/25 11:33:16;;;;;;;4.15;1.88;;;30.00;99.70;;;;;;5090949;27;20062;-76
2022/08/25 11:35:51;;;;;;;4.10;2.33;;;30.00;99.30;;;;;;5085541;28;20500;-76
2022/08/25 11:38:31;;;;;;;3.60;1.95;;;30.00;99.00;;;;;;5087335;28;20036;-76
2022/08/25 11:41:16;;;;;;;6.47;1.88;;;30.20;99.60;;;;;;5083722;28;20028;-76
2022/08/25 11:44:03;;;;;;;2.53;1.85;;;30.20;99.90;;;;;;5083033;28;20056;-78
2022/08/25 11:47:00;;;;;;;4.53;2.10;;;30.00;98.50;;;;;;5077287;28;20884;-76
2022/08/25 11:49:49;;;;;;;3.55;1.98;;;30.10;99.00;;;;;;5083524;28;20051;-77
2022/08/25 11:52:33;;;;;;;5.55;1.88;;;30.10;99.40;;;;;;5087741;28;20197;-79
2022/08/25 11:55:48;;;;;;;4.07;1.95;;;30.20;99.30;;;;;;5050140;28;20036;-82
2022/08/25 11:58:35;;;;;;;4.43;1.90;;;30.10;98.50;;;;;;5058255;28;20403;-81
2022/08/25 12:01:03;;;;;;;5.05;2.15;;;30.10;98.60;;;;;;5068553;28;20127;-83
2022/08/25 12:03:35;;;;;;;4.50;2.00;;;30.20;98.40;;;;;;5067301;28;20075;-80
2022/08/25 12:06:26;;;;;;;5.03;2.45;;;30.20;99.00;;;;;;5067952;28;20048;-82
2022/08/25 12:09:12;;;;;;;7.20;1.80;;;30.30;98.80;;;;;;5078997;28;20055;-86
2022/08/25 12:11:38;;;;;;;1.90;1.30;;;30.30;98.00;;;;;;5086189;28;20410;-85
2022/08/25 12:14:40;;;;;;;4.35;2.58;;;30.20;97.70;;;;;;5088171;28;20056;-86
2022/08/25 12:17:17;;;;;;;6.60;2.05;;;30.20;98.00;;;;;;5044029;28;20052;-85
2022/08/25 12:19:43;;;;;;;4.43;2.33;;;30.30;98.20;;;;;;5061018;28;20036;-84
2022/08/25 12:22:08;;;;;;;11.18;3.30;;;30.40;98.00;;;;;;5084413;28;20366;-85
2022/08/25 12:24:43;;;;;;;3.10;1.73;;;30.50;98.00;;;;;;5072322;28;20047;-86
2022/08/25 12:27:42;;;;;;;2.58;1.65;;;30.50;97.20;;;;;;5069318;28;20052;-82
2022/08/25 12:30:14;;;;;;;4.75;1.85;;;30.30;97.70;;;;;;5103764;28;20038;-83
2022/08/25 12:32:46;;;;;;;2.95;1.98;;;30.40;97.90;;;;;;5071807;28;20063;-85
2022/08/25 12:35:20;;;;;;;5.45;2.10;;;30.50;96.90;;;;;;5080212;28;20039;-82
2022/08/25 12:38:36;;;;;;;5.05;2.10;;;30.60;96.40;;;;;;5086790;28;20048;-83
2022/08/25 12:41:20;;;;;;;3.92;1.83;;;30.70;96.60;;;;;;5000261;28;20456;-83
2022/08/25 12:43:51;;;;;;;3.50;2.10;;;30.70;96.50;;;;;;5071455;28;20048;-81
2022/08/25 12:46:20;;;;;;;4.07;1.83;;;30.70;96.60;;;;;;5081738;28;20509;-81
2022/08/25 12:48:56;;;;;;;3.17;2.17;;;30.60;96.80;;;;;;5079905;28;20505;-83
2022/08/25 12:51:25;;;;;;;3.95;1.88;;;30.80;97.40;;;;;;5071371;28;20040;-77
2022/08/25 12:54:15;;;;;;;3.50;1.90;;;30.50;96.80;;;;;;5073464;28;20048;-77
2022/08/25 12:56:45;;;;;;;2.03;1.40;;;30.50;96.80;;;;;;5086483;28;20055;-78
2022/08/25 12:59:36;;;;;;;3.67;1.70;;;30.50;97.30;;;;;;5077081;28;20548;-80
2022/08/25 13:02:26;;;;;;;4.85;1.80;;;30.70;97.40;;;;;;5083748;28;20117;-77
2022/08/25 13:05:04;;;;;;;2.65;1.77;;;30.60;97.40;;;;;;5085260;28;20194;-79
2022/08/25 13:08:00;;;;;;;4.07;2.08;;;30.60;96.90;;;;;;5069965;28;20128;-78
2022/08/25 13:11:20;;;;;;;3.88;1.90;;;30.70;96.10;;;;;;5091524;28;20039;-77
2022/08/25 13:13:50;;;;;;;3.97;1.95;;;30.60;95.30;;;;;;4965681;28;20062;-77